Data for 11/17/2008

Time Sea-Level Adjusted Pressure Absolute Pressure Temperature Relative Humidity Dew Point   
(mb) (inHg) (mb) (inHg) (C) (F) (%) (C) (F)
00:05 1026 30.3 855 25.25 10.2 50.4 31 -6 21.2
00:10 1026 30.3 855 25.25 10.3 50.5 31 -6.1 21
00:15 1025 30.27 855 25.25 10.2 50.4 32 -5.8 21.5
00:20 1025 30.27 855 25.25 10.1 50.2 32 -5.9 21.3
00:25 1025 30.27 855 25.25 10.2 50.3 32 -5.9 21.4
00:30 1025 30.27 855 25.25 10.1 50.3 31 -6.3 20.6
00:35 1025 30.27 855 25.25 10.3 50.6 31 -6.2 20.9
00:40 1025 30.27 855 25.25 10.3 50.6 31 -6 21.2
00:45 1025 30.27 855 25.25 10 50 35 -4.6 23.7
00:50 1025 30.27 855 25.25 9.2 48.5 36 -5.2 22.6
00:55 1025 30.27 855 25.25 8.9 48.1 38 -4.6 23.7
01:00 1025 30.27 855 25.25 8.5 47.2 41 -3.9 25
01:05 1025 30.27 855 25.25 7.8 46 47 -2.8 27
01:10 1025 30.27 855 25.25 6.7 44 44 -4.8 23.3
01:15 1026 30.3 855 25.25 7.2 45 41 -5.3 22.5
01:20 1026 30.3 855 25.25 7.9 46.2 36 -6.2 20.9
01:25 1026 30.3 855 25.25 8.6 47.5 36 -5.5 22.1
01:30 1026 30.3 855 25.25 8.3 46.9 37 -5.4 22.3
01:35 1026 30.3 855 25.25 7.9 46.3 38 -5.6 22
01:40 1026 30.3 855 25.25 7.8 46.1 40 -5 23.1
01:45 1026 30.3 855 25.25 7.6 45.7 40 -5 23
01:50 1026 30.3 855 25.25 7.4 45.4 41 -5 23.1
01:55 1026 30.3 855 25.25 7.5 45.5 41 -5 22.9
02:00 1026 30.3 855 25.25 7.7 45.8 39 -5.4 22.2
02:05 1026 30.3 855 25.25 7.8 46.1 39 -5.2 22.7
02:10 1026 30.3 855 25.25 7.9 46.1 39 -5.2 22.7
02:15 1026 30.3 855 25.25 7.7 45.8 41 -4.6 23.7
02:20 1026 30.3 855 25.25 7.3 45.1 41 -5 23
02:25 1026 30.3 855 25.25 7.6 45.7 40 -5.3 22.5
02:30 1026 30.3 855 25.25 7.5 45.6 45 -3.5 25.7
02:35 1026 30.3 855 25.25 6.9 44.4 44 -4.4 24.1
02:40 1026 30.3 855 25.25 7.3 45.1 46 -3.5 25.6
02:45 1026 30.3 855 25.25 7.3 45.1 45 -4 24.8
02:50 1026 30.3 855 25.25 7 44.7 49 -2.9 26.8
02:55 1026 30.3 855 25.25 6.2 43.1 49 -3.7 25.4
03:00 1026 30.3 855 25.25 6.2 43.2 50 -3.5 25.7
03:05 1026 30.3 855 25.25 6 42.8 51 -3.2 26.2
03:10 1026 30.3 855 25.25 5.7 42.3 52 -3.3 26
03:15 1026 30.3 855 25.25 5.7 42.3 51 -3.7 25.3
03:20 1026 30.3 855 25.25 5.7 42.2 52 -3.5 25.7
03:25 1026 30.3 855 25.25 5.7 42.2 50 -3.9 25
03:30 1026 30.3 855 25.25 5.9 42.5 52 -3.2 26.2
03:35 1026 30.3 855 25.25 5.8 42.4 48 -4.3 24.3
03:40 1026 30.3 855 25.25 6.1 43 49 -3.7 25.3
03:45 1026 30.3 855 25.25 5.9 42.6 49 -4.1 24.7
03:50 1026 30.3 855 25.25 5.9 42.7 46 -4.8 23.4
03:55 1026 30.3 855 25.25 6.3 43.3 47 -4.1 24.6
04:00 1026 30.3 855 25.25 6.4 43.5 46 -4.3 24.2
04:05 1026 30.3 856 25.28 6.4 43.5 45 -4.8 23.3
04:10 1026 30.3 855 25.25 6.8 44.3 45 -4.1 24.6
04:15 1026 30.3 856 25.28 6.7 44 49 -3.4 25.9
04:20 1026 30.3 856 25.28 6 42.8 52 -3 26.5
04:25 1026 30.3 856 25.28 5.6 42 54 -3 26.5
04:30 1026 30.3 856 25.28 5.2 41.3 55 -3.2 26.3
04:35 1026 30.3 856 25.28 4.6 40.3 59 -2.7 27.2
04:40 1026 30.3 856 25.28 4 39.2 60 -3.1 26.5
04:45 1026 30.3 856 25.28 4 39.1 59 -3.3 26
04:50 1027 30.33 856 25.28 3.9 39.1 59 -3.4 25.9
04:55 1027 30.33 856 25.28 4 39.1 59 -3.4 25.8
05:00 1027 30.33 856 25.28 4.1 39.4 55 -4.1 24.7
05:05 1027 30.33 856 25.28 4.5 40.1 55 -3.7 25.3
05:10 1027 30.33 856 25.28 4.6 40.4 54 -3.8 25.2
05:15 1027 30.33 856 25.28 4.9 40.8 53 -3.8 25.2
05:20 1027 30.33 856 25.28 5.2 41.3 48 -4.9 23.1
05:25 1027 30.33 856 25.28 5.9 42.7 46 -4.8 23.4
05:30 1027 30.33 856 25.28 5.8 42.5 46 -4.8 23.3
05:35 1027 30.33 856 25.28 6 42.8 45 -5.1 22.8
05:40 1027 30.33 856 25.28 6.2 43.1 46 -4.5 23.9
05:45 1027 30.33 856 25.28 5.9 42.6 48 -4.3 24.2
05:50 1027 30.33 856 25.28 5.5 41.9 50 -4.2 24.5
05:55 1027 30.33 856 25.28 5.2 41.4 51 -4.1 24.6
06:00 1027 30.33 856 25.28 5.2 41.3 51 -4.2 24.5
06:05 1027 30.33 856 25.28 5 41 51 -4.2 24.5
06:10 1027 30.33 856 25.28 5.2 41.4 47 -5.1 22.8
06:15 1027 30.33 856 25.28 5.9 42.5 45 -5.2 22.6
06:20 1027 30.33 856 25.28 6.1 43 45 -5 23
06:25 1027 30.33 856 25.28 6.1 43 45 -4.9 23.1
06:30 1027 30.33 856 25.28 5.8 42.5 46 -4.8 23.3
06:35 1027 30.33 856 25.28 5.4 41.7 47 -5 22.9
06:40 1027 30.33 856 25.28 5.5 41.8 45 -5.4 22.3
06:45 1027 30.33 856 25.28 5.8 42.4 46 -5 23.1
06:50 1027 30.33 856 25.28 5.6 42 47 -5 23
06:55 1027 30.33 856 25.28 5.6 42.2 47 -4.9 23.2
07:00 1027 30.33 856 25.28 5.7 42.2 46 -5.1 22.8
07:05 1027 30.33 856 25.28 5.7 42.2 47 -4.7 23.6
07:10 1027 30.33 856 25.28 5.2 41.4 47 -5 22.9
07:15 1027 30.33 856 25.28 5.4 41.7 46 -5.2 22.7
07:20 1027 30.33 856 25.28 5.6 42.2 46 -5.1 22.8
07:25 1027 30.33 856 25.28 5.7 42.2 46 -4.9 23.1
07:30 1027 30.33 856 25.28 5.4 41.7 48 -4.8 23.3
07:35 1027 30.33 856 25.28 5.2 41.3 48 -5 23
07:40 1027 30.33 856 25.28 5.6 42.1 45 -5.3 22.5
07:45 1027 30.33 856 25.28 6 42.8 45 -5.1 22.8
07:50 1027 30.33 856 25.28 6 42.8 44 -5.5 22.2
07:55 1027 30.33 856 25.28 6.3 43.3 44 -5.2 22.7
08:00 1027 30.33 857 25.31 6.3 43.3 44 -5.1 22.8
08:05 1027 30.33 857 25.31 6.2 43.1 44 -5 22.9
08:10 1027 30.33 857 25.31 5.8 42.5 46 -4.8 23.3
08:15 1027 30.33 857 25.31 5.6 42 47 -4.9 23.2
08:20 1027 30.33 857 25.31 5.5 41.9 46 -5.3 22.5
08:25 1027 30.33 857 25.31 6 42.8 46 -4.7 23.5
08:30 1027 30.33 857 25.31 6 42.7 47 -4.5 24
08:35 1028 30.36 857 25.31 6 42.8 44 -5.3 22.5
08:40 1028 30.36 857 25.31 6.5 43.6 42 -5.6 21.9
08:45 1027 30.33 857 25.31 7 44.5 40 -5.8 21.6
08:50 1027 30.33 857 25.31 7.3 45.1 40 -5.5 22.1
08:55 1027 30.33 857 25.31 7.3 45.1 40 -5.3 22.4
09:00 1027 30.33 857 25.31 7.3 45.1 41 -5.2 22.7
09:05 1028 30.36 857 25.31 7.2 44.9 41 -5.1 22.8
09:10 1028 30.36 857 25.31 7.2 44.9 41 -5.1 22.9
09:15 1028 30.36 857 25.31 7.2 44.9 42 -5 23.1
09:20 1028 30.36 857 25.31 7.2 45 41 -5.1 22.8
09:25 1028 30.36 857 25.31 7.3 45.1 41 -5.2 22.6
09:30 1028 30.36 857 25.31 8 46.4 37 -5.7 21.7
09:35 1027 30.33 857 25.31 8.2 46.8 37 -5.7 21.7
09:40 1027 30.33 857 25.31 8.7 47.7 34 -6.1 21
09:45 1027 30.33 857 25.31 8.7 47.7 36 -5.6 22
09:50 1027 30.33 857 25.31 8.6 47.5 41 -3.9 25
09:55 1028 30.36 857 25.31 8.6 47.4 40 -4.2 24.5
10:00 1028 30.36 857 25.31 8.7 47.7 38 -4.9 23.2
10:05 1028 30.36 857 25.31 9 48.2 39 -4.2 24.5
10:10 1028 30.36 857 25.31 9 48.2 39 -4.3 24.3
10:15 1028 30.36 857 25.31 9.2 48.5 39 -4 24.8
10:20 1028 30.36 857 25.31 9.3 48.7 40 -3.8 25.2
10:25 1028 30.36 857 25.31 9.1 48.4 38 -4.4 24.1
10:30 1028 30.36 857 25.31 9 48.3 37 -5 23.1
10:35 1028 30.36 857 25.31 9.1 48.4 37 -4.7 23.5
10:40 1028 30.36 857 25.31 9.5 49 36 -5 23
10:45 1028 30.36 857 25.31 9.6 49.2 36 -4.8 23.4
10:50 1028 30.36 857 25.31 9.6 49.3 36 -4.7 23.6
10:55 1028 30.36 857 25.31 9.7 49.4 36 -4.5 23.9
11:00 1028 30.36 857 25.31 9.9 49.8 35 -4.7 23.5
11:05 1028 30.36 857 25.31 10.4 50.8 34 -4.9 23.2
11:10 1028 30.36 857 25.31 10.7 51.3 34 -4.5 23.9
11:15 1027 30.33 857 25.31 11.2 52.2 33 -4.4 24.1
11:20 1027 30.33 857 25.31 11.3 52.4 34 -4 24.8
11:25 1027 30.33 857 25.31 11.2 52.2 34 -3.9 25
11:30 1027 30.33 857 25.31 11.1 52 34 -4.1 24.5
11:35 1027 30.33 857 25.31 11.4 52.5 33 -4.5 24
11:40 1027 30.33 857 25.31 11.6 52.9 32 -4.3 24.2
11:45 1027 30.33 857 25.31 12 53.6 31 -4.7 23.5
11:50 1027 30.33 856 25.28 12 53.7 32 -4.3 24.3
11:55 1027 30.33 856 25.28 12 53.7 32 -4.1 24.5
12:00 1027 30.33 856 25.28 12.1 53.8 31 -4.6 23.8
12:05 1027 30.33 856 25.28 11.8 53.3 32 -4.1 24.5
12:10 1027 30.33 856 25.28 11.5 52.6 32 -4.6 23.8
12:15 1027 30.33 856 25.28 12.1 53.8 31 -4.4 24
12:20 1027 30.33 856 25.28 12.7 54.8 31 -4.1 24.6
12:25 1027 30.33 856 25.28 12.9 55.1 30 -4 24.7
12:30 1027 30.33 856 25.28 12.8 55.1 31 -3.9 24.9
12:35 1027 30.33 856 25.28 12.4 54.3 32 -3.7 25.3
12:40 1027 30.33 856 25.28 12.7 54.8 32 -3.7 25.3
12:45 1027 30.33 856 25.28 12.9 55.1 32 -3.5 25.7
12:50 1027 30.33 856 25.28 12.8 55 32 -3.4 25.9
12:55 1027 30.33 856 25.28 12.6 54.7 35 -2.5 27.5
13:00 1027 30.33 856 25.28 12.7 54.9 36 -2 28.5
13:05 1027 30.33 856 25.28 12.9 55.1 37 -1.4 29.4
13:10 1027 30.33 856 25.28 12.1 53.9 39 -1.4 29.5
13:15 1027 30.33 856 25.28 11.8 53.2 40 -1.3 29.6
13:20 1027 30.33 856 25.28 11.5 52.7 41 -1.4 29.6
13:25 1027 30.33 856 25.28 11.3 52.4 41 -1.5 29.2
13:30 1027 30.33 856 25.28 11.6 52.8 39 -1.8 28.7
13:35 1027 30.33 856 25.28 11.5 52.7 39 -1.8 28.8
13:40 1027 30.33 856 25.28 11.7 53 39 -1.9 28.6
13:45 1027 30.33 856 25.28 11.7 53 39 -1.9 28.5
13:50 1027 30.33 856 25.28 11.6 52.9 39 -2 28.4
13:55 1027 30.33 856 25.28 11.6 52.8 39 -2 28.4
14:00 1026 30.3 856 25.28 11.7 53.1 38 -2 28.4
14:05 1026 30.3 856 25.28 11.7 53.1 39 -1.9 28.6
14:10 1026 30.3 856 25.28 11.8 53.3 38 -2.1 28.2
14:15 1026 30.3 856 25.28 12.1 53.8 37 -2 28.4
14:20 1026 30.3 855 25.25 12.2 54 37 -1.9 28.6
14:25 1026 30.3 855 25.25 12 53.6 36 -2.4 27.7
14:30 1026 30.3 855 25.25 12 53.5 36 -2.4 27.6
14:35 1026 30.3 855 25.25 12.2 53.9 36 -2.4 27.6
14:40 1026 30.3 855 25.25 12.2 53.9 36 -2.4 27.7
14:45 1026 30.3 855 25.25 12.2 53.9 36 -2.4 27.7
14:50 1026 30.3 855 25.25 12.2 54 36 -2.5 27.6
14:55 1026 30.3 855 25.25 12.3 54.1 37 -2 28.4
15:00 1026 30.3 855 25.25 12.1 53.8 37 -2 28.3
15:05 1026 30.3 855 25.25 12.1 53.8 35 -2.7 27.1
15:10 1026 30.3 855 25.25 12 53.6 38 -1.9 28.6
15:15 1026 30.3 855 25.25 12 53.5 37 -2.1 28.3
15:20 1026 30.3 855 25.25 12 53.5 37 -2.3 27.8
15:25 1026 30.3 855 25.25 12 53.6 36 -2.5 27.4
15:30 1026 30.3 855 25.25 12.1 53.7 33 -3.6 25.6
15:35 1026 30.3 855 25.25 12.2 54 31 -4.4 24.1
15:40 1026 30.3 855 25.25 12.5 54.5 33 -3.2 26.3
15:45 1026 30.3 855 25.25 12.5 54.6 33 -3.1 26.4
15:50 1026 30.3 855 25.25 12.6 54.6 34 -2.9 26.8
15:55 1026 30.3 855 25.25 12.3 54.2 35 -2.8 27
16:00 1026 30.3 855 25.25 12.3 54.1 35 -2.8 27
16:05 1026 30.3 855 25.25 12.2 53.9 37 -2.1 28.3
16:10 1026 30.3 855 25.25 12 53.6 36 -2.5 27.5
16:15 1026 30.3 855 25.25 11.8 53.3 38 -2 28.4
16:20 1026 30.3 855 25.25 11.7 53 40 -1.4 29.5
16:25 1026 30.3 855 25.25 11.3 52.4 43 -0.8 30.6
16:30 1026 30.3 855 25.25 11.1 52 43 -0.9 30.3
16:35 1026 30.3 855 25.25 10.9 51.7 44 -0.8 30.6
16:40 1026 30.3 855 25.25 10.7 51.3 45 -0.6 30.9
16:45 1026 30.3 855 25.25 10.7 51.3 42 -1.5 29.3
16:50 1026 30.3 855 25.25 10.8 51.5 44 -1 30.2
16:55 1026 30.3 855 25.25 10.9 51.6 44 -0.7 30.7
17:00 1026 30.3 855 25.25 11 51.8 45 -0.4 31.4
17:05 1026 30.3 855 25.25 11 51.7 45 -0.4 31.3
17:10 1026 30.3 855 25.25 10.9 51.7 40 -2.1 28.2
17:15 1026 30.3 855 25.25 11 51.8 39 -2.2 28
17:20 1026 30.3 855 25.25 10.8 51.5 42 -1.7 29
17:25 1026 30.3 855 25.25 10.6 51 39 -2.7 27.1
17:30 1026 30.3 855 25.25 10.6 51 39 -2.9 26.7
17:35 1026 30.3 855 25.25 10.5 50.9 36 -4 24.7
17:40 1026 30.3 855 25.25 10.5 50.9 36 -4 24.9
17:45 1026 30.3 855 25.25 10.5 51 36 -4 24.8
17:50 1026 30.3 855 25.25 10.7 51.2 36 -3.8 25.2
17:55 1026 30.3 855 25.25 10.6 51 34 -4.7 23.5
18:00 1026 30.3 855 25.25 10.7 51.3 32 -5.5 22.2
18:05 1026 30.3 855 25.25 10.8 51.5 34 -4.5 23.9
18:10 1026 30.3 855 25.25 10.6 51.2 33 -4.9 23.1
18:15 1026 30.3 855 25.25 10.3 50.6 31 -5.9 21.4
18:20 1025 30.27 855 25.25 10.8 51.4 33 -4.9 23.2
18:25 1025 30.27 855 25.25 10.4 50.7 33 -5.1 22.8
18:30 1025 30.27 855 25.25 10.4 50.8 32 -5.5 22
18:35 1025 30.27 855 25.25 10.7 51.3 32 -5.5 22.1
18:40 1025 30.27 855 25.25 10.7 51.2 32 -5.5 22.1
18:45 1025 30.27 855 25.25 10.5 50.9 32 -5.3 22.5
18:50 1025 30.27 855 25.25 10.4 50.8 32 -5.3 22.4
18:55 1025 30.27 855 25.25 10.2 50.3 32 -5.6 21.9
19:00 1025 30.27 855 25.25 10 49.9 33 -5.6 22
19:05 1025 30.27 855 25.25 9.8 49.7 33 -5.8 21.6
19:10 1025 30.27 855 25.25 10.1 50.2 31 -6.1 21
19:15 1025 30.27 855 25.25 10.2 50.4 32 -5.6 22
19:20 1025 30.27 855 25.25 9.9 49.9 32 -5.9 21.3
19:25 1025 30.27 855 25.25 10 50 31 -6.2 20.8
19:30 1025 30.27 854 25.22 10.3 50.5 31 -6.1 21
19:35 1025 30.27 854 25.22 10.4 50.7 31 -6.2 20.9
19:40 1025 30.27 854 25.22 10.5 51 30 -6.4 20.4
19:45 1025 30.27 854 25.22 10.8 51.4 29 -6.3 20.6
19:50 1025 30.27 854 25.22 10.8 51.4 29 -6.4 20.4
19:55 1025 30.27 854 25.22 10.6 51.1 29 -6.6 20
20:00 1025 30.27 854 25.22 10.8 51.4 28 -6.9 19.7
20:05 1025 30.27 854 25.22 10.8 51.4 30 -6.2 20.8
20:10 1025 30.27 854 25.22 10.1 50.2 31 -6.2 20.9
20:15 1025 30.27 854 25.22 9.9 49.8 31 -6.6 20.1
20:20 1025 30.27 854 25.22 9.9 49.9 30 -6.7 19.9
20:25 1025 30.27 854 25.22 10.2 50.3 31 -6.2 20.8
20:30 1025 30.27 854 25.22 9.9 49.8 30 -6.6 20
20:35 1025 30.27 854 25.22 10.2 50.4 30 -6.6 20.1
20:40 1025 30.27 854 25.22 10.4 50.6 29 -6.8 19.8
20:45 1025 30.27 854 25.22 10.5 50.8 28 -7.1 19.2
20:50 1025 30.27 854 25.22 11 51.8 27 -7.2 19.1
20:55 1025 30.27 854 25.22 11.2 52.2 26 -7.3 18.8
21:00 1025 30.27 854 25.22 11.3 52.4 27 -7.2 19.1
21:05 1025 30.27 854 25.22 11.3 52.4 26 -7.3 18.8
21:10 1025 30.27 854 25.22 11.4 52.5 26 -7.4 18.7
21:15 1025 30.27 854 25.22 11.3 52.3 27 -6.9 19.5
21:20 1025 30.27 854 25.22 10.8 51.4 29 -6.5 20.3
21:25 1025 30.27 854 25.22 10.5 50.8 30 -6.5 20.3
21:30 1025 30.27 854 25.22 10.5 51 29 -6.8 19.7
21:35 1025 30.27 854 25.22 10.8 51.4 28 -7.1 19.1
21:40 1025 30.27 854 25.22 10.7 51.3 26 -8 17.6
21:45 1025 30.27 854 25.22 11 51.7 26 -7.7 18.1
21:50 1025 30.27 854 25.22 10.9 51.5 25 -8.4 16.9
21:55 1025 30.27 854 25.22 10.8 51.5 26 -7.9 17.8
22:00 1024 30.24 854 25.22 11.5 52.6 25 -8.1 17.4
22:05 1024 30.24 854 25.22 11.5 52.7 25 -7.7 18.2
22:10 1024 30.24 854 25.22 10.7 51.2 26 -7.9 17.8
22:15 1024 30.24 854 25.22 10.7 51.2 28 -7.2 19
22:20 1024 30.24 854 25.22 10.6 51.1 28 -7 19.4
22:25 1024 30.24 854 25.22 10.5 50.9 29 -6.9 19.5
22:30 1024 30.24 853 25.19 10.5 50.9 29 -6.8 19.7
22:35 1024 30.24 853 25.19 10.7 51.2 28 -7.1 19.1
22:40 1024 30.24 853 25.19 10.8 51.5 28 -6.9 19.7
22:45 1024 30.24 853 25.19 11.3 52.3 27 -7.2 19
22:50 1024 30.24 853 25.19 11.5 52.6 27 -7 19.3
22:55 1024 30.24 853 25.19 11.5 52.8 26 -7.3 18.8
23:00 1024 30.24 853 25.19 11.7 53 27 -6.8 19.8
23:05 1024 30.24 853 25.19 11.1 51.9 29 -6.4 20.5
23:10 1024 30.24 853 25.19 10.7 51.3 29 -6.7 19.9
23:15 1024 30.24 853 25.19 10.9 51.5 29 -6.6 20.2
23:20 1024 30.24 853 25.19 10.8 51.4 29 -6.7 19.9
23:25 1024 30.24 853 25.19 10.8 51.4 29 -6.6 20.2
23:30 1024 30.24 853 25.19 10.9 51.6 28 -6.9 19.6
23:35 1024 30.24 853 25.19 11.1 52 28 -6.8 19.8
23:40 1024 30.24 853 25.19 11.1 52 28 -6.8 19.7
23:45 1024 30.24 853 25.19 11.4 52.4 27 -6.9 19.5
23:50 1024 30.24 853 25.19 11.5 52.7 27 -6.9 19.6
23:55 1024 30.24 853 25.19 11.5 52.7 27 -6.8 19.8
24:00 1024 30.24 853 25.19 11.5 52.7 27 -6.9 19.6